sensor_id;sensor_type;location;lat;lon;timestamp;P1;durP1;ratioP1;P2;durP2;ratioP2
9388;SDS011;4734;52.778;6.798;2023-08-06T00:00:38;5.70;;;3.78;;
9388;SDS011;4734;52.778;6.798;2023-08-06T00:03:24;5.07;;;4.68;;
9388;SDS011;4734;52.778;6.798;2023-08-06T00:06:09;4.60;;;4.20;;
9388;SDS011;4734;52.778;6.798;2023-08-06T00:08:55;4.07;;;3.78;;
9388;SDS011;4734;52.778;6.798;2023-08-06T00:11:42;4.70;;;4.30;;
9388;SDS011;4734;52.778;6.798;2023-08-06T00:14:30;5.15;;;3.95;;
9388;SDS011;4734;52.778;6.798;2023-08-06T00:17:15;4.85;;;3.90;;
9388;SDS011;4734;52.778;6.798;2023-08-06T00:20:01;4.60;;;4.20;;
9388;SDS011;4734;52.778;6.798;2023-08-06T00:22:48;4.47;;;4.07;;
9388;SDS011;4734;52.778;6.798;2023-08-06T00:25:34;4.28;;;3.97;;
9388;SDS011;4734;52.778;6.798;2023-08-06T00:28:21;4.45;;;4.15;;
9388;SDS011;4734;52.778;6.798;2023-08-06T00:31:07;5.53;;;4.22;;
9388;SDS011;4734;52.778;6.798;2023-08-06T00:33:52;4.40;;;4.00;;
9388;SDS011;4734;52.778;6.798;2023-08-06T00:36:38;4.13;;;3.83;;
9388;SDS011;4734;52.778;6.798;2023-08-06T00:39:24;4.50;;;4.10;;
9388;SDS011;4734;52.778;6.798;2023-08-06T00:42:10;5.75;;;4.05;;
9388;SDS011;4734;52.778;6.798;2023-08-06T00:44:57;5.80;;;3.92;;
9388;SDS011;4734;52.778;6.798;2023-08-06T00:47:43;4.53;;;4.13;;
9388;SDS011;4734;52.778;6.798;2023-08-06T00:50:29;6.38;;;4.60;;
9388;SDS011;4734;52.778;6.798;2023-08-06T00:53:15;4.38;;;4.05;;
9388;SDS011;4734;52.778;6.798;2023-08-06T00:56:00;4.57;;;4.18;;
9388;SDS011;4734;52.778;6.798;2023-08-06T00:58:47;6.13;;;4.28;;
9388;SDS011;4734;52.778;6.798;2023-08-06T01:01:34;6.20;;;4.72;;
9388;SDS011;4734;52.778;6.798;2023-08-06T01:04:19;4.78;;;4.30;;
9388;SDS011;4734;52.778;6.798;2023-08-06T01:07:06;6.47;;;4.40;;
9388;SDS011;4734;52.778;6.798;2023-08-06T01:10:11;5.05;;;4.55;;
9388;SDS011;4734;52.778;6.798;2023-08-06T01:13:08;5.70;;;4.80;;
9388;SDS011;4734;52.778;6.798;2023-08-06T01:16:14;5.00;;;4.55;;
9388;SDS011;4734;52.778;6.798;2023-08-06T01:19:02;5.38;;;4.88;;
9388;SDS011;4734;52.778;6.798;2023-08-06T01:21:48;5.05;;;4.57;;
9388;SDS011;4734;52.778;6.798;2023-08-06T01:24:34;5.47;;;5.07;;
9388;SDS011;4734;52.778;6.798;2023-08-06T01:27:22;4.68;;;4.28;;
9388;SDS011;4734;52.778;6.798;2023-08-06T01:30:13;6.50;;;4.88;;
9388;SDS011;4734;52.778;6.798;2023-08-06T01:33:03;5.43;;;4.93;;
9388;SDS011;4734;52.778;6.798;2023-08-06T01:35:50;5.30;;;4.80;;
9388;SDS011;4734;52.778;6.798;2023-08-06T01:38:39;7.15;;;5.15;;
9388;SDS011;4734;52.778;6.798;2023-08-06T01:41:25;5.63;;;4.97;;
9388;SDS011;4734;52.778;6.798;2023-08-06T01:44:10;6.60;;;5.13;;
9388;SDS011;4734;52.778;6.798;2023-08-06T01:46:56;4.72;;;4.32;;
9388;SDS011;4734;52.778;6.798;2023-08-06T01:49:42;7.07;;;4.25;;
9388;SDS011;4734;52.778;6.798;2023-08-06T01:52:27;4.90;;;4.50;;
9388;SDS011;4734;52.778;6.798;2023-08-06T01:55:14;5.65;;;4.78;;
9388;SDS011;4734;52.778;6.798;2023-08-06T01:58:01;6.38;;;4.78;;
9388;SDS011;4734;52.778;6.798;2023-08-06T02:00:47;6.82;;;4.60;;
9388;SDS011;4734;52.778;6.798;2023-08-06T02:03:33;5.32;;;4.93;;
9388;SDS011;4734;52.778;6.798;2023-08-06T02:06:18;5.82;;;4.47;;
9388;SDS011;4734;52.778;6.798;2023-08-06T02:09:04;5.28;;;4.88;;
9388;SDS011;4734;52.778;6.798;2023-08-06T02:11:51;5.35;;;4.80;;
9388;SDS011;4734;52.778;6.798;2023-08-06T02:14:36;5.38;;;4.90;;
9388;SDS011;4734;52.778;6.798;2023-08-06T02:17:22;5.50;;;5.00;;
9388;SDS011;4734;52.778;6.798;2023-08-06T02:20:08;7.32;;;5.35;;
9388;SDS011;4734;52.778;6.798;2023-08-06T02:22:54;5.07;;;4.57;;
9388;SDS011;4734;52.778;6.798;2023-08-06T02:25:39;5.65;;;5.25;;
9388;SDS011;4734;52.778;6.798;2023-08-06T02:28:26;6.18;;;5.38;;
9388;SDS011;4734;52.778;6.798;2023-08-06T02:31:12;5.13;;;4.75;;
9388;SDS011;4734;52.778;6.798;2023-08-06T02:33:57;6.20;;;5.50;;
9388;SDS011;4734;52.778;6.798;2023-08-06T02:36:43;5.28;;;4.88;;
9388;SDS011;4734;52.778;6.798;2023-08-06T02:39:29;6.30;;;4.50;;
9388;SDS011;4734;52.778;6.798;2023-08-06T02:42:14;4.93;;;4.53;;
9388;SDS011;4734;52.778;6.798;2023-08-06T02:45:02;5.68;;;5.18;;
9388;SDS011;4734;52.778;6.798;2023-08-06T02:47:49;5.07;;;4.68;;
9388;SDS011;4734;52.778;6.798;2023-08-06T02:50:38;5.13;;;4.72;;
9388;SDS011;4734;52.778;6.798;2023-08-06T02:53:23;7.95;;;5.15;;
9388;SDS011;4734;52.778;6.798;2023-08-06T02:56:09;5.45;;;4.70;;
9388;SDS011;4734;52.778;6.798;2023-08-06T02:58:55;5.57;;;5.03;;
9388;SDS011;4734;52.778;6.798;2023-08-06T03:01:42;5.80;;;5.18;;
9388;SDS011;4734;52.778;6.798;2023-08-06T03:04:27;5.60;;;5.10;;
9388;SDS011;4734;52.778;6.798;2023-08-06T03:07:13;6.60;;;4.68;;
9388;SDS011;4734;52.778;6.798;2023-08-06T03:09:58;6.18;;;5.47;;
9388;SDS011;4734;52.778;6.798;2023-08-06T03:12:45;4.85;;;4.45;;
9388;SDS011;4734;52.778;6.798;2023-08-06T03:15:31;5.25;;;4.85;;
9388;SDS011;4734;52.778;6.798;2023-08-06T03:18:18;5.07;;;4.68;;
9388;SDS011;4734;52.778;6.798;2023-08-06T03:21:03;6.63;;;4.70;;
9388;SDS011;4734;52.778;6.798;2023-08-06T03:23:49;5.75;;;5.13;;
9388;SDS011;4734;52.778;6.798;2023-08-06T03:26:35;5.03;;;4.57;;
9388;SDS011;4734;52.778;6.798;2023-08-06T03:29:20;5.30;;;4.90;;
9388;SDS011;4734;52.778;6.798;2023-08-06T03:32:06;5.28;;;4.88;;
9388;SDS011;4734;52.778;6.798;2023-08-06T03:34:54;5.38;;;4.95;;
9388;SDS011;4734;52.778;6.798;2023-08-06T03:37:39;5.30;;;4.60;;
9388;SDS011;4734;52.778;6.798;2023-08-06T03:40:24;4.95;;;4.47;;
9388;SDS011;4734;52.778;6.798;2023-08-06T03:43:10;4.85;;;4.45;;
9388;SDS011;4734;52.778;6.798;2023-08-06T03:45:56;5.32;;;4.35;;
9388;SDS011;4734;52.778;6.798;2023-08-06T03:48:41;5.85;;;5.35;;
9388;SDS011;4734;52.778;6.798;2023-08-06T03:51:28;7.15;;;5.20;;
9388;SDS011;4734;52.778;6.798;2023-08-06T03:54:14;8.48;;;5.00;;
9388;SDS011;4734;52.778;6.798;2023-08-06T03:56:59;5.35;;;4.70;;
9388;SDS011;4734;52.778;6.798;2023-08-06T03:59:45;6.22;;;5.72;;
9388;SDS011;4734;52.778;6.798;2023-08-06T04:02:30;5.85;;;5.40;;
9388;SDS011;4734;52.778;6.798;2023-08-06T04:05:16;5.57;;;5.15;;
9388;SDS011;4734;52.778;6.798;2023-08-06T04:08:03;6.15;;;5.55;;
9388;SDS011;4734;52.778;6.798;2023-08-06T04:10:49;6.15;;;5.35;;
9388;SDS011;4734;52.778;6.798;2023-08-06T04:13:34;6.85;;;5.65;;
9388;SDS011;4734;52.778;6.798;2023-08-06T04:16:20;5.80;;;5.30;;
9388;SDS011;4734;52.778;6.798;2023-08-06T04:19:05;6.20;;;5.18;;
9388;SDS011;4734;52.778;6.798;2023-08-06T04:21:51;6.38;;;5.88;;
9388;SDS011;4734;52.778;6.798;2023-08-06T04:24:38;6.65;;;5.55;;
9388;SDS011;4734;52.778;6.798;2023-08-06T04:27:24;6.50;;;5.30;;
9388;SDS011;4734;52.778;6.798;2023-08-06T04:30:11;6.50;;;5.90;;
9388;SDS011;4734;52.778;6.798;2023-08-06T04:32:56;6.07;;;5.55;;
9388;SDS011;4734;52.778;6.798;2023-08-06T04:35:42;7.38;;;5.72;;
9388;SDS011;4734;52.778;6.798;2023-08-06T04:38:28;6.60;;;6.00;;
9388;SDS011;4734;52.778;6.798;2023-08-06T04:41:15;5.85;;;5.45;;
9388;SDS011;4734;52.778;6.798;2023-08-06T04:44:00;5.03;;;4.55;;
9388;SDS011;4734;52.778;6.798;2023-08-06T04:46:47;4.97;;;4.60;;
9388;SDS011;4734;52.778;6.798;2023-08-06T04:49:32;5.70;;;5.20;;
9388;SDS011;4734;52.778;6.798;2023-08-06T04:52:18;5.72;;;5.15;;
9388;SDS011;4734;52.778;6.798;2023-08-06T04:55:04;5.55;;;5.15;;
9388;SDS011;4734;52.778;6.798;2023-08-06T04:57:51;7.35;;;6.25;;
9388;SDS011;4734;52.778;6.798;2023-08-06T05:00:37;7.10;;;6.55;;
9388;SDS011;4734;52.778;6.798;2023-08-06T05:03:22;6.05;;;5.50;;
9388;SDS011;4734;52.778;6.798;2023-08-06T05:06:08;6.13;;;5.43;;
9388;SDS011;4734;52.778;6.798;2023-08-06T05:08:54;6.30;;;5.80;;
9388;SDS011;4734;52.778;6.798;2023-08-06T05:11:39;6.43;;;5.93;;
9388;SDS011;4734;52.778;6.798;2023-08-06T05:14:26;6.65;;;6.05;;
9388;SDS011;4734;52.778;6.798;2023-08-06T05:17:12;6.45;;;5.95;;
9388;SDS011;4734;52.778;6.798;2023-08-06T05:19:57;7.00;;;6.40;;
9388;SDS011;4734;52.778;6.798;2023-08-06T05:22:43;7.78;;;7.13;;
9388;SDS011;4734;52.778;6.798;2023-08-06T05:25:29;8.35;;;7.70;;
9388;SDS011;4734;52.778;6.798;2023-08-06T05:28:15;8.50;;;7.80;;
9388;SDS011;4734;52.778;6.798;2023-08-06T05:31:04;8.20;;;6.60;;
9388;SDS011;4734;52.778;6.798;2023-08-06T05:33:49;9.82;;;8.98;;
9388;SDS011;4734;52.778;6.798;2023-08-06T05:36:35;9.57;;;8.77;;
9388;SDS011;4734;52.778;6.798;2023-08-06T05:39:20;10.30;;;9.40;;
9388;SDS011;4734;52.778;6.798;2023-08-06T05:42:06;9.90;;;8.95;;
9388;SDS011;4734;52.778;6.798;2023-08-06T05:44:52;12.65;;;11.35;;
9388;SDS011;4734;52.778;6.798;2023-08-06T05:47:39;10.32;;;9.32;;
9388;SDS011;4734;52.778;6.798;2023-08-06T05:50:24;12.82;;;11.60;;
9388;SDS011;4734;52.778;6.798;2023-08-06T05:53:10;12.20;;;11.00;;
9388;SDS011;4734;52.778;6.798;2023-08-06T05:55:55;11.60;;;10.65;;
9388;SDS011;4734;52.778;6.798;2023-08-06T05:58:41;10.90;;;10.00;;
9388;SDS011;4734;52.778;6.798;2023-08-06T06:01:26;12.85;;;10.23;;
9388;SDS011;4734;52.778;6.798;2023-08-06T06:04:13;10.40;;;9.40;;
9388;SDS011;4734;52.778;6.798;2023-08-06T06:06:59;9.30;;;8.40;;
9388;SDS011;4734;52.778;6.798;2023-08-06T06:09:45;10.57;;;9.55;;
9388;SDS011;4734;52.778;6.798;2023-08-06T06:12:30;10.02;;;9.13;;
9388;SDS011;4734;52.778;6.798;2023-08-06T06:15:16;9.70;;;8.90;;
9388;SDS011;4734;52.778;6.798;2023-08-06T06:18:01;10.35;;;9.48;;
9388;SDS011;4734;52.778;6.798;2023-08-06T06:20:48;10.18;;;9.38;;
9388;SDS011;4734;52.778;6.798;2023-08-06T06:23:34;10.57;;;9.50;;
9388;SDS011;4734;52.778;6.798;2023-08-06T06:26:19;10.38;;;9.43;;
9388;SDS011;4734;52.778;6.798;2023-08-06T06:29:05;10.02;;;9.23;;
9388;SDS011;4734;52.778;6.798;2023-08-06T06:31:51;9.45;;;8.55;;
9388;SDS011;4734;52.778;6.798;2023-08-06T06:34:36;9.77;;;8.88;;
9388;SDS011;4734;52.778;6.798;2023-08-06T06:37:23;10.02;;;9.13;;
9388;SDS011;4734;52.778;6.798;2023-08-06T06:40:09;9.82;;;9.02;;
9388;SDS011;4734;52.778;6.798;2023-08-06T06:42:55;9.50;;;8.70;;
9388;SDS011;4734;52.778;6.798;2023-08-06T06:45:41;9.18;;;8.50;;
9388;SDS011;4734;52.778;6.798;2023-08-06T06:48:27;10.68;;;9.55;;
9388;SDS011;4734;52.778;6.798;2023-08-06T06:51:14;10.43;;;8.48;;
9388;SDS011;4734;52.778;6.798;2023-08-06T06:54:01;9.70;;;8.80;;
9388;SDS011;4734;52.778;6.798;2023-08-06T06:56:46;9.57;;;8.85;;
9388;SDS011;4734;52.778;6.798;2023-08-06T06:59:31;8.70;;;7.93;;
9388;SDS011;4734;52.778;6.798;2023-08-06T07:02:17;8.65;;;7.93;;
9388;SDS011;4734;52.778;6.798;2023-08-06T07:05:03;8.40;;;7.60;;
9388;SDS011;4734;52.778;6.798;2023-08-06T07:07:50;8.55;;;7.50;;
9388;SDS011;4734;52.778;6.798;2023-08-06T07:10:40;8.65;;;7.95;;
9388;SDS011;4734;52.778;6.798;2023-08-06T07:13:26;8.65;;;7.88;;
9388;SDS011;4734;52.778;6.798;2023-08-06T07:16:12;8.90;;;8.10;;
9388;SDS011;4734;52.778;6.798;2023-08-06T07:18:57;8.73;;;7.82;;
9388;SDS011;4734;52.778;6.798;2023-08-06T07:21:43;9.23;;;8.05;;
9388;SDS011;4734;52.778;6.798;2023-08-06T07:24:28;8.10;;;7.50;;
9388;SDS011;4734;52.778;6.798;2023-08-06T07:27:15;8.15;;;7.50;;
9388;SDS011;4734;52.778;6.798;2023-08-06T07:30:01;8.75;;;7.82;;
9388;SDS011;4734;52.778;6.798;2023-08-06T07:32:47;9.05;;;8.18;;
9388;SDS011;4734;52.778;6.798;2023-08-06T07:35:33;8.00;;;7.40;;
9388;SDS011;4734;52.778;6.798;2023-08-06T07:38:18;8.95;;;8.05;;
9388;SDS011;4734;52.778;6.798;2023-08-06T07:41:04;8.70;;;8.00;;
9388;SDS011;4734;52.778;6.798;2023-08-06T07:43:51;7.65;;;7.05;;
9388;SDS011;4734;52.778;6.798;2023-08-06T07:46:36;7.57;;;6.97;;
9388;SDS011;4734;52.778;6.798;2023-08-06T07:49:23;7.97;;;7.38;;
9388;SDS011;4734;52.778;6.798;2023-08-06T07:52:08;7.85;;;7.25;;
9388;SDS011;4734;52.778;6.798;2023-08-06T07:54:54;7.78;;;7.18;;
9388;SDS011;4734;52.778;6.798;2023-08-06T07:57:40;8.73;;;7.43;;
9388;SDS011;4734;52.778;6.798;2023-08-06T08:00:27;8.18;;;7.53;;
9388;SDS011;4734;52.778;6.798;2023-08-06T08:03:13;7.95;;;7.15;;
9388;SDS011;4734;52.778;6.798;2023-08-06T08:05:59;7.72;;;7.13;;
9388;SDS011;4734;52.778;6.798;2023-08-06T08:08:45;8.23;;;7.53;;
9388;SDS011;4734;52.778;6.798;2023-08-06T08:11:31;7.60;;;6.90;;
9388;SDS011;4734;52.778;6.798;2023-08-06T08:14:17;8.02;;;7.32;;
9388;SDS011;4734;52.778;6.798;2023-08-06T08:17:04;8.07;;;7.38;;
9388;SDS011;4734;52.778;6.798;2023-08-06T08:19:50;7.18;;;6.57;;
9388;SDS011;4734;52.778;6.798;2023-08-06T08:22:36;6.70;;;6.22;;
9388;SDS011;4734;52.778;6.798;2023-08-06T08:25:22;7.50;;;6.82;;
9388;SDS011;4734;52.778;6.798;2023-08-06T08:28:07;7.10;;;6.50;;
9388;SDS011;4734;52.778;6.798;2023-08-06T08:30:53;6.93;;;6.43;;
9388;SDS011;4734;52.778;6.798;2023-08-06T08:33:40;7.97;;;6.78;;
9388;SDS011;4734;52.778;6.798;2023-08-06T08:36:25;6.80;;;6.28;;
9388;SDS011;4734;52.778;6.798;2023-08-06T08:39:11;7.57;;;6.85;;
9388;SDS011;4734;52.778;6.798;2023-08-06T08:41:56;7.32;;;6.30;;
9388;SDS011;4734;52.778;6.798;2023-08-06T08:44:42;6.32;;;5.90;;
9388;SDS011;4734;52.778;6.798;2023-08-06T08:47:29;6.38;;;5.88;;
9388;SDS011;4734;52.778;6.798;2023-08-06T08:50:17;6.28;;;5.75;;
9388;SDS011;4734;52.778;6.798;2023-08-06T08:53:03;6.20;;;5.63;;
9388;SDS011;4734;52.778;6.798;2023-08-06T08:55:50;5.55;;;5.15;;
9388;SDS011;4734;52.778;6.798;2023-08-06T08:58:37;7.28;;;5.60;;
9388;SDS011;4734;52.778;6.798;2023-08-06T09:01:23;5.70;;;5.20;;
9388;SDS011;4734;52.778;6.798;2023-08-06T09:04:09;6.30;;;5.80;;
9388;SDS011;4734;52.778;6.798;2023-08-06T09:06:58;6.25;;;5.75;;
9388;SDS011;4734;52.778;6.798;2023-08-06T09:09:45;6.35;;;5.65;;
9388;SDS011;4734;52.778;6.798;2023-08-06T09:12:33;6.00;;;5.50;;
9388;SDS011;4734;52.778;6.798;2023-08-06T09:15:19;6.38;;;5.82;;
9388;SDS011;4734;52.778;6.798;2023-08-06T09:18:09;6.22;;;5.63;;
9388;SDS011;4734;52.778;6.798;2023-08-06T09:20:55;6.25;;;5.65;;
9388;SDS011;4734;52.778;6.798;2023-08-06T09:23:42;6.68;;;5.97;;
9388;SDS011;4734;52.778;6.798;2023-08-06T09:26:32;6.57;;;5.85;;
9388;SDS011;4734;52.778;6.798;2023-08-06T09:29:18;5.70;;;5.30;;
9388;SDS011;4734;52.778;6.798;2023-08-06T09:32:04;5.90;;;5.35;;
9388;SDS011;4734;52.778;6.798;2023-08-06T09:34:54;5.78;;;5.38;;
9388;SDS011;4734;52.778;6.798;2023-08-06T09:37:41;5.63;;;5.22;;
9388;SDS011;4734;52.778;6.798;2023-08-06T09:40:29;5.68;;;5.18;;
9388;SDS011;4734;52.778;6.798;2023-08-06T09:43:15;5.63;;;5.07;;
9388;SDS011;4734;52.778;6.798;2023-08-06T09:46:10;5.50;;;5.10;;
9388;SDS011;4734;52.778;6.798;2023-08-06T09:48:58;5.97;;;5.57;;
9388;SDS011;4734;52.778;6.798;2023-08-06T09:51:43;5.78;;;5.20;;
9388;SDS011;4734;52.778;6.798;2023-08-06T09:54:30;5.30;;;4.80;;
9388;SDS011;4734;52.778;6.798;2023-08-06T09:57:18;5.30;;;4.90;;
9388;SDS011;4734;52.778;6.798;2023-08-06T10:00:05;5.47;;;4.90;;
9388;SDS011;4734;52.778;6.798;2023-08-06T10:02:53;6.03;;;4.75;;
9388;SDS011;4734;52.778;6.798;2023-08-06T10:05:40;4.88;;;4.47;;
9388;SDS011;4734;52.778;6.798;2023-08-06T10:08:26;4.65;;;4.25;;
9388;SDS011;4734;52.778;6.798;2023-08-06T10:11:11;5.00;;;4.60;;
9388;SDS011;4734;52.778;6.798;2023-08-06T10:14:00;5.10;;;4.57;;
9388;SDS011;4734;52.778;6.798;2023-08-06T10:16:51;4.78;;;4.38;;
9388;SDS011;4734;52.778;6.798;2023-08-06T10:19:37;4.70;;;4.30;;
9388;SDS011;4734;52.778;6.798;2023-08-06T10:22:23;5.38;;;4.20;;
9388;SDS011;4734;52.778;6.798;2023-08-06T10:25:11;4.65;;;4.25;;
9388;SDS011;4734;52.778;6.798;2023-08-06T10:28:09;4.55;;;4.07;;
9388;SDS011;4734;52.778;6.798;2023-08-06T10:30:58;4.85;;;4.35;;
9388;SDS011;4734;52.778;6.798;2023-08-06T10:33:44;4.25;;;3.85;;
9388;SDS011;4734;52.778;6.798;2023-08-06T10:36:30;4.72;;;4.35;;
9388;SDS011;4734;52.778;6.798;2023-08-06T10:39:16;4.55;;;4.20;;
9388;SDS011;4734;52.778;6.798;2023-08-06T10:42:02;4.65;;;4.13;;
9388;SDS011;4734;52.778;6.798;2023-08-06T10:47:57;3.90;;;3.55;;
9388;SDS011;4734;52.778;6.798;2023-08-06T10:50:43;4.43;;;3.65;;
9388;SDS011;4734;52.778;6.798;2023-08-06T10:53:29;5.32;;;3.55;;
9388;SDS011;4734;52.778;6.798;2023-08-06T10:56:14;6.22;;;3.20;;
9388;SDS011;4734;52.778;6.798;2023-08-06T10:59:01;3.42;;;3.10;;
9388;SDS011;4734;52.778;6.798;2023-08-06T11:01:46;3.75;;;3.33;;
9388;SDS011;4734;52.778;6.798;2023-08-06T11:04:34;3.95;;;2.95;;
9388;SDS011;4734;52.778;6.798;2023-08-06T11:07:20;3.40;;;3.10;;
9388;SDS011;4734;52.778;6.798;2023-08-06T11:10:08;3.53;;;3.22;;
9388;SDS011;4734;52.778;6.798;2023-08-06T11:13:00;2.97;;;2.78;;
9388;SDS011;4734;52.778;6.798;2023-08-06T11:15:46;3.35;;;3.13;;
9388;SDS011;4734;52.778;6.798;2023-08-06T11:18:32;3.38;;;3.10;;
9388;SDS011;4734;52.778;6.798;2023-08-06T11:21:19;5.57;;;3.35;;
9388;SDS011;4734;52.778;6.798;2023-08-06T11:24:05;2.97;;;2.67;;
9388;SDS011;4734;52.778;6.798;2023-08-06T11:26:51;3.97;;;2.42;;
9388;SDS011;4734;52.778;6.798;2023-08-06T11:29:36;3.40;;;2.45;;
9388;SDS011;4734;52.778;6.798;2023-08-06T11:32:22;2.50;;;2.30;;
9388;SDS011;4734;52.778;6.798;2023-08-06T11:35:11;2.72;;;2.25;;
9388;SDS011;4734;52.778;6.798;2023-08-06T11:38:02;2.58;;;2.42;;
9388;SDS011;4734;52.778;6.798;2023-08-06T11:40:47;5.32;;;2.33;;
9388;SDS011;4734;52.778;6.798;2023-08-06T11:43:33;2.70;;;2.50;;
9388;SDS011;4734;52.778;6.798;2023-08-06T11:46:18;2.42;;;1.92;;
9388;SDS011;4734;52.778;6.798;2023-08-06T11:49:04;3.45;;;2.42;;
9388;SDS011;4734;52.778;6.798;2023-08-06T11:51:50;5.70;;;2.90;;
9388;SDS011;4734;52.778;6.798;2023-08-06T11:54:37;5.68;;;2.70;;
9388;SDS011;4734;52.778;6.798;2023-08-06T11:57:22;3.05;;;2.40;;
9388;SDS011;4734;52.778;6.798;2023-08-06T12:00:08;2.83;;;2.40;;
9388;SDS011;4734;52.778;6.798;2023-08-06T12:02:56;3.30;;;2.75;;
9388;SDS011;4734;52.778;6.798;2023-08-06T12:05:41;3.55;;;2.78;;
9388;SDS011;4734;52.778;6.798;2023-08-06T12:08:30;4.20;;;2.45;;
9388;SDS011;4734;52.778;6.798;2023-08-06T12:11:20;3.03;;;2.55;;
9388;SDS011;4734;52.778;6.798;2023-08-06T12:14:06;2.40;;;2.20;;
9388;SDS011;4734;52.778;6.798;2023-08-06T12:16:51;5.40;;;2.33;;
9388;SDS011;4734;52.778;6.798;2023-08-06T12:19:37;2.20;;;2.00;;
9388;SDS011;4734;52.778;6.798;2023-08-06T12:22:23;2.10;;;2.00;;
9388;SDS011;4734;52.778;6.798;2023-08-06T12:25:09;2.88;;;2.67;;
9388;SDS011;4734;52.778;6.798;2023-08-06T12:27:57;3.63;;;2.72;;
9388;SDS011;4734;52.778;6.798;2023-08-06T12:30:42;2.30;;;2.10;;
9388;SDS011;4734;52.778;6.798;2023-08-06T12:33:29;2.83;;;2.63;;
9388;SDS011;4734;52.778;6.798;2023-08-06T12:36:14;2.92;;;2.38;;
9388;SDS011;4734;52.778;6.798;2023-08-06T12:39:00;2.30;;;2.15;;
9388;SDS011;4734;52.778;6.798;2023-08-06T12:41:45;2.65;;;2.42;;
9388;SDS011;4734;52.778;6.798;2023-08-06T12:44:32;2.53;;;2.42;;
9388;SDS011;4734;52.778;6.798;2023-08-06T12:47:18;2.90;;;2.70;;
9388;SDS011;4734;52.778;6.798;2023-08-06T12:50:04;2.20;;;2.10;;
9388;SDS011;4734;52.778;6.798;2023-08-06T12:52:51;3.10;;;2.40;;
9388;SDS011;4734;52.778;6.798;2023-08-06T12:55:36;2.67;;;2.25;;
9388;SDS011;4734;52.778;6.798;2023-08-06T12:58:24;4.30;;;2.38;;
9388;SDS011;4734;52.778;6.798;2023-08-06T13:01:11;2.40;;;2.20;;
9388;SDS011;4734;52.778;6.798;2023-08-06T13:03:57;2.42;;;2.30;;
9388;SDS011;4734;52.778;6.798;2023-08-06T13:06:42;3.25;;;2.47;;
9388;SDS011;4734;52.778;6.798;2023-08-06T13:09:28;3.42;;;2.47;;
9388;SDS011;4734;52.778;6.798;2023-08-06T13:12:14;2.95;;;2.65;;
9388;SDS011;4734;52.778;6.798;2023-08-06T13:15:03;3.00;;;2.78;;
9388;SDS011;4734;52.778;6.798;2023-08-06T13:17:50;2.60;;;2.40;;
9388;SDS011;4734;52.778;6.798;2023-08-06T13:20:37;3.55;;;2.38;;
9388;SDS011;4734;52.778;6.798;2023-08-06T13:23:24;2.70;;;2.50;;
9388;SDS011;4734;52.778;6.798;2023-08-06T13:26:10;2.65;;;2.45;;
9388;SDS011;4734;52.778;6.798;2023-08-06T13:28:56;2.63;;;2.42;;
9388;SDS011;4734;52.778;6.798;2023-08-06T13:31:41;2.67;;;2.30;;
9388;SDS011;4734;52.778;6.798;2023-08-06T13:34:28;3.50;;;2.20;;
9388;SDS011;4734;52.778;6.798;2023-08-06T13:37:14;2.60;;;2.03;;
9388;SDS011;4734;52.778;6.798;2023-08-06T13:39:59;2.22;;;2.03;;
9388;SDS011;4734;52.778;6.798;2023-08-06T13:42:46;2.58;;;2.10;;
9388;SDS011;4734;52.778;6.798;2023-08-06T13:45:31;2.00;;;1.90;;
9388;SDS011;4734;52.778;6.798;2023-08-06T13:48:18;2.22;;;2.03;;
9388;SDS011;4734;52.778;6.798;2023-08-06T13:51:06;2.30;;;2.10;;
9388;SDS011;4734;52.778;6.798;2023-08-06T13:53:51;2.40;;;2.20;;
9388;SDS011;4734;52.778;6.798;2023-08-06T13:56:37;2.22;;;2.03;;
9388;SDS011;4734;52.778;6.798;2023-08-06T13:59:23;2.40;;;2.20;;
9388;SDS011;4734;52.778;6.798;2023-08-06T14:02:08;3.25;;;2.10;;
9388;SDS011;4734;52.778;6.798;2023-08-06T14:04:54;2.10;;;2.00;;
9388;SDS011;4734;52.778;6.798;2023-08-06T14:07:41;2.53;;;2.10;;
9388;SDS011;4734;52.778;6.798;2023-08-06T14:10:27;2.10;;;2.00;;
9388;SDS011;4734;52.778;6.798;2023-08-06T14:13:13;2.67;;;2.47;;
9388;SDS011;4734;52.778;6.798;2023-08-06T14:15:58;2.00;;;1.90;;
9388;SDS011;4734;52.778;6.798;2023-08-06T14:18:44;2.20;;;2.00;;
9388;SDS011;4734;52.778;6.798;2023-08-06T14:21:29;2.28;;;2.08;;
9388;SDS011;4734;52.778;6.798;2023-08-06T14:24:16;4.50;;;2.10;;
9388;SDS011;4734;52.778;6.798;2023-08-06T14:27:02;2.58;;;2.38;;
9388;SDS011;4734;52.778;6.798;2023-08-06T14:29:49;2.47;;;2.25;;
9388;SDS011;4734;52.778;6.798;2023-08-06T14:32:35;2.30;;;2.10;;
9388;SDS011;4734;52.778;6.798;2023-08-06T14:35:21;2.63;;;1.98;;
9388;SDS011;4734;52.778;6.798;2023-08-06T14:38:06;1.98;;;1.88;;
9388;SDS011;4734;52.778;6.798;2023-08-06T14:40:53;2.75;;;2.40;;
9388;SDS011;4734;52.778;6.798;2023-08-06T14:43:38;2.10;;;1.90;;
9388;SDS011;4734;52.778;6.798;2023-08-06T14:46:24;2.15;;;2.03;;
9388;SDS011;4734;52.778;6.798;2023-08-06T14:49:10;2.50;;;2.00;;
9388;SDS011;4734;52.778;6.798;2023-08-06T14:51:56;1.83;;;1.73;;
9388;SDS011;4734;52.778;6.798;2023-08-06T14:54:43;2.13;;;2.03;;
9388;SDS011;4734;52.778;6.798;2023-08-06T14:57:30;2.15;;;1.75;;
9388;SDS011;4734;52.778;6.798;2023-08-06T15:00:16;2.28;;;1.92;;
9388;SDS011;4734;52.778;6.798;2023-08-06T15:03:02;1.83;;;1.73;;
9388;SDS011;4734;52.778;6.798;2023-08-06T15:05:47;1.70;;;1.60;;
9388;SDS011;4734;52.778;6.798;2023-08-06T15:08:33;1.90;;;1.80;;
9388;SDS011;4734;52.778;6.798;2023-08-06T15:11:19;2.00;;;1.90;;
9388;SDS011;4734;52.778;6.798;2023-08-06T15:14:06;1.75;;;1.65;;
9388;SDS011;4734;52.778;6.798;2023-08-06T15:16:52;1.98;;;1.65;;
9388;SDS011;4734;52.778;6.798;2023-08-06T15:19:39;2.00;;;1.90;;
9388;SDS011;4734;52.778;6.798;2023-08-06T15:22:25;2.70;;;2.10;;
9388;SDS011;4734;52.778;6.798;2023-08-06T15:25:12;2.40;;;2.20;;
9388;SDS011;4734;52.778;6.798;2023-08-06T15:27:58;2.00;;;1.90;;
9388;SDS011;4734;52.778;6.798;2023-08-06T15:30:48;1.85;;;1.75;;
9388;SDS011;4734;52.778;6.798;2023-08-06T15:33:34;2.20;;;2.00;;
9388;SDS011;4734;52.778;6.798;2023-08-06T15:36:20;1.88;;;1.77;;
9388;SDS011;4734;52.778;6.798;2023-08-06T15:39:05;1.83;;;1.73;;
9388;SDS011;4734;52.778;6.798;2023-08-06T15:41:51;2.08;;;1.98;;
9388;SDS011;4734;52.778;6.798;2023-08-06T15:44:37;1.65;;;1.55;;
9388;SDS011;4734;52.778;6.798;2023-08-06T15:47:24;1.70;;;1.60;;
9388;SDS011;4734;52.778;6.798;2023-08-06T15:50:09;1.73;;;1.63;;
9388;SDS011;4734;52.778;6.798;2023-08-06T15:52:55;3.03;;;1.70;;
9388;SDS011;4734;52.778;6.798;2023-08-06T15:55:41;1.90;;;1.80;;
9388;SDS011;4734;52.778;6.798;2023-08-06T15:58:26;2.00;;;1.80;;
9388;SDS011;4734;52.778;6.798;2023-08-06T16:01:12;2.08;;;1.67;;
9388;SDS011;4734;52.778;6.798;2023-08-06T16:03:59;1.80;;;1.70;;
9388;SDS011;4734;52.778;6.798;2023-08-06T16:06:45;3.15;;;1.80;;
9388;SDS011;4734;52.778;6.798;2023-08-06T16:09:30;1.70;;;1.60;;
9388;SDS011;4734;52.778;6.798;2023-08-06T16:12:17;2.00;;;1.90;;
9388;SDS011;4734;52.778;6.798;2023-08-06T16:15:04;2.28;;;1.88;;
9388;SDS011;4734;52.778;6.798;2023-08-06T16:17:50;1.70;;;1.60;;
9388;SDS011;4734;52.778;6.798;2023-08-06T16:20:41;2.15;;;1.90;;
9388;SDS011;4734;52.778;6.798;2023-08-06T16:23:28;1.80;;;1.70;;
9388;SDS011;4734;52.778;6.798;2023-08-06T16:26:13;1.90;;;1.80;;
9388;SDS011;4734;52.778;6.798;2023-08-06T16:28:58;2.45;;;1.80;;
9388;SDS011;4734;52.778;6.798;2023-08-06T16:31:44;1.98;;;1.70;;
9388;SDS011;4734;52.778;6.798;2023-08-06T16:34:30;3.30;;;2.00;;
9388;SDS011;4734;52.778;6.798;2023-08-06T16:37:17;1.98;;;1.88;;
9388;SDS011;4734;52.778;6.798;2023-08-06T16:40:03;1.60;;;1.50;;
9388;SDS011;4734;52.778;6.798;2023-08-06T16:42:50;3.08;;;1.90;;
9388;SDS011;4734;52.778;6.798;2023-08-06T16:45:35;3.25;;;2.05;;
9388;SDS011;4734;52.778;6.798;2023-08-06T16:48:22;1.98;;;1.60;;
9388;SDS011;4734;52.778;6.798;2023-08-06T16:51:10;2.20;;;2.00;;
9388;SDS011;4734;52.778;6.798;2023-08-06T16:53:58;2.80;;;1.70;;
9388;SDS011;4734;52.778;6.798;2023-08-06T16:56:43;1.95;;;1.85;;
9388;SDS011;4734;52.778;6.798;2023-08-06T16:59:29;2.55;;;2.05;;
9388;SDS011;4734;52.778;6.798;2023-08-06T17:02:15;1.70;;;1.60;;
9388;SDS011;4734;52.778;6.798;2023-08-06T17:05:00;1.85;;;1.75;;
9388;SDS011;4734;52.778;6.798;2023-08-06T17:07:46;1.92;;;1.70;;
9388;SDS011;4734;52.778;6.798;2023-08-06T17:10:35;1.70;;;1.60;;
9388;SDS011;4734;52.778;6.798;2023-08-06T17:13:23;1.83;;;1.73;;
9388;SDS011;4734;52.778;6.798;2023-08-06T17:16:09;1.77;;;1.67;;